createdAt,value
2023-04-20T00:04:40.233Z,5.80
2023-04-20T00:14:40.844Z,6.50
2023-04-20T00:24:41.551Z,5.90
2023-04-20T00:34:43.363Z,6.10
2023-04-20T00:44:43.051Z,6.60
2023-04-20T00:54:44.063Z,6.70
2023-04-20T01:04:44.408Z,7.60
2023-04-20T01:14:45.314Z,7.10
2023-04-20T01:24:45.899Z,7.20
2023-04-20T01:34:46.480Z,7.10
2023-04-20T01:44:47.228Z,6.10
2023-04-20T01:54:48.038Z,6.90
2023-04-20T02:04:48.769Z,6.60
2023-04-20T02:24:50.176Z,6.80
2023-04-20T02:34:50.902Z,5.80
2023-04-20T02:44:51.796Z,5.80
2023-04-20T02:54:52.403Z,7.00
2023-04-20T03:04:53.185Z,6.10
2023-04-20T03:14:53.558Z,6.00
2023-04-20T03:24:53.853Z,6.70
2023-04-20T03:34:54.419Z,6.80
2023-04-20T03:44:54.965Z,5.80
2023-04-20T03:54:55.493Z,5.60
2023-04-20T04:04:56.216Z,7.00
2023-04-20T04:14:56.596Z,6.30
2023-04-20T04:24:57.158Z,7.40
2023-04-20T04:44:58.222Z,7.00
2023-04-20T04:54:58.807Z,6.60
2023-04-20T05:04:59.355Z,8.20
2023-04-20T05:14:59.995Z,7.10
2023-04-20T05:25:00.650Z,7.70
2023-04-20T05:35:01.407Z,7.00
2023-04-20T05:45:02.194Z,6.50
2023-04-20T05:55:03.140Z,5.90
2023-04-20T06:05:04.643Z,5.70
2023-04-20T06:15:05.396Z,6.00
2023-04-20T06:25:06.523Z,5.70
2023-04-20T06:35:07.501Z,6.70
2023-04-20T06:45:08.621Z,6.00
2023-04-20T06:55:09.464Z,5.10
2023-04-20T07:05:10.697Z,5.40
2023-04-20T07:15:11.519Z,4.50
2023-04-20T07:35:13.790Z,5.00
2023-04-20T07:45:14.889Z,5.70
2023-04-20T07:55:15.957Z,5.30
2023-04-20T08:05:17.437Z,5.60
2023-04-20T08:15:18.447Z,5.50
2023-04-20T08:25:19.907Z,5.90
2023-04-20T08:35:21.588Z,5.20
2023-04-20T08:45:23.135Z,5.30
2023-04-20T08:55:24.687Z,4.60
2023-04-20T09:05:26.315Z,4.70
2023-04-20T09:15:28.138Z,4.60
2023-04-20T09:25:29.614Z,4.00
2023-04-20T09:35:32.077Z,4.40
2023-04-20T09:45:32.604Z,4.30
2023-04-20T09:55:34.127Z,4.20
2023-04-20T10:05:36.304Z,4.20
2023-04-20T10:15:38.340Z,3.90
2023-04-20T10:25:38.752Z,4.00
2023-04-20T10:35:40.299Z,3.80
2023-04-20T10:45:41.781Z,4.10
2023-04-20T10:55:43.498Z,3.60
2023-04-20T11:05:44.721Z,3.90
2023-04-20T11:15:46.177Z,3.70
2023-04-20T11:25:47.709Z,3.70
2023-04-20T11:35:49.242Z,4.30
2023-04-20T11:45:50.730Z,3.40
2023-04-20T11:55:52.119Z,3.60
2023-04-20T12:05:53.775Z,3.50
2023-04-20T12:15:55.168Z,3.30
2023-04-20T12:25:56.604Z,3.40
2023-04-20T12:35:58.266Z,3.50
2023-04-20T12:45:59.518Z,3.50
2023-04-20T12:56:01.610Z,3.10
2023-04-20T13:06:02.571Z,3.40
2023-04-20T13:16:04.146Z,3.30
2023-04-20T13:26:05.816Z,3.10
2023-04-20T13:36:07.214Z,3.10
2023-04-20T13:46:08.806Z,2.90
2023-04-20T13:56:10.346Z,2.90
2023-04-20T14:06:11.933Z,3.30
2023-04-20T14:16:13.716Z,2.80
2023-04-20T14:36:16.623Z,2.80
2023-04-20T14:46:18.204Z,3.60
2023-04-20T14:56:19.698Z,2.40
2023-04-20T15:06:21.242Z,2.60
2023-04-20T15:16:23.842Z,2.40
2023-04-20T15:26:24.491Z,2.70
2023-04-20T15:36:25.909Z,2.40
2023-04-20T15:46:27.476Z,2.60
2023-04-20T15:56:29.031Z,2.90
2023-04-20T16:06:30.502Z,2.70
2023-04-20T16:16:32.034Z,2.80
2023-04-20T16:26:33.211Z,2.60
2023-04-20T16:36:34.578Z,2.50
2023-04-20T16:46:35.962Z,2.60
2023-04-20T16:56:37.452Z,2.70
2023-04-20T17:06:39.763Z,3.00
2023-04-20T17:16:40.059Z,2.80
2023-04-20T17:26:41.409Z,2.00
2023-04-20T17:36:42.689Z,1.70
2023-04-20T17:46:44.012Z,2.40
2023-04-20T18:06:46.937Z,2.20
2023-04-20T18:16:48.088Z,2.00
2023-04-20T18:26:50.221Z,2.70
2023-04-20T18:36:50.620Z,3.20
2023-04-20T18:46:51.907Z,3.60
2023-04-20T18:56:54.551Z,3.70
2023-04-20T19:06:54.412Z,3.40
2023-04-20T19:16:55.705Z,3.50
2023-04-20T19:26:57.008Z,4.00
2023-04-20T19:36:58.031Z,3.80
2023-04-20T19:47:00.800Z,4.00
2023-04-20T19:57:00.430Z,3.80
2023-04-20T20:07:01.539Z,4.30
2023-04-20T20:17:02.592Z,4.50
2023-04-20T20:27:03.778Z,4.40
2023-04-20T20:37:04.865Z,5.00
2023-04-20T20:47:06.104Z,4.50
2023-04-20T20:57:07.148Z,4.40
2023-04-20T21:07:08.342Z,4.70
2023-04-20T21:17:09.558Z,5.90
2023-04-20T21:27:10.404Z,5.60
2023-04-20T21:37:11.485Z,5.50
2023-04-20T21:47:12.613Z,6.30
2023-04-20T21:57:13.727Z,5.40
2023-04-20T22:07:14.677Z,6.20
2023-04-20T22:17:15.737Z,6.10
2023-04-20T22:27:17.041Z,4.70
2023-04-20T22:37:17.950Z,4.70
2023-04-20T22:47:19.117Z,4.80
2023-04-20T22:57:20.050Z,4.80
2023-04-20T23:07:21.047Z,5.40
2023-04-20T23:17:22.042Z,5.00
2023-04-20T23:27:23.281Z,4.50
2023-04-20T23:37:24.003Z,4.80
2023-04-20T23:47:25.013Z,4.50
2023-04-20T23:57:27.666Z,4.10
